Provincetown III — WDB8185 — position and weather

sailwx.info

Track history (hours):
 
Tides and Currents Weather Stations Pressure Air Temp Water Temp Dewpoint Dewpoint Depression Visibility Wind Speed Wind Dir Waves Ship Positions

Provincetown III

Owner: MYSTIC FERRY LEASING LLC, BOSTON, MA. More information available from US FCC via Universal Licensing System and Coast Guard Vessel Documentation Center.

Last reported at 2017-Jan-20 19:30 UTC. Time now 2017-Jan-20 20:15 UTC.
Position N 18°25' W 064°37'.

Length 30 m; draft 2 m.

Type: Passenger vessel. MMSI: 366954420.

Date/timePositionNaut miles runAvg speedWind from/ knotsBaromVisibWave heightAir tempDewpointWater temp
2017-Jan-20 19:30N 18°25' W 064°37'1010.5
2017-Jan-20 18:33N 18°22' W 064°47'9 7.9
2017-Jan-20 17:24N 18°20' W 064°56'0 0.1
2017-Jan-20 16:33N 18°20' W 064°56'0 0.2
2017-Jan-20 15:33N 18°20' W 064°56'1010.1
2017-Jan-20 14:33N 18°22' W 064°46'6 5.7
2017-Jan-20 13:34N 18°23' W 064°40'9 4.6
2017-Jan-20 11:33N 18°20' W 064°49'12 0.8
2017-Jan-19 21:11N 18°24' W 064°37'1524.1
2017-Jan-19 20:33N 18°18' W 064°52'0 0.2
2017-Jan-19 19:11N 18°18' W 064°52'1524.1
2017-Jan-19 18:33N 18°24' W 064°38'8 3.9
2017-Jan-19 16:33N 18°22' W 064°46'1 0.6
2017-Jan-19 14:34N 18°22' W 064°47'9 7.8
2017-Jan-19 13:24N 18°24' W 064°37'10 5.5
2017-Jan-19 11:33N 18°21' W 064°48'11 0.8
2017-Jan-18 21:14N 18°25' W 064°37'1623.4
2017-Jan-18 20:33N 18°18' W 064°52'7 1.8
2017-Jan-18 16:34N 18°22' W 064°46'5 2.5
2017-Jan-18 14:32N 18°19' W 064°50'1211.2
2017-Jan-18 13:25N 18°24' W 064°38'12 6.3
2017-Jan-18 11:33N 18°20' W 064°49'13 0.9
2017-Jan-17 21:15N 18°24' W 064°37'1623.1
2017-Jan-17 20:34N 18°18' W 064°52'1 0.5
2017-Jan-17 19:13N 18°18' W 064°53'1624.4
2017-Jan-17 18:33N 18°24' W 064°37'9 4.5
2017-Jan-17 16:34N 18°22' W 064°46'1 0.6
2017-Jan-17 14:34N 18°21' W 064°47'10 8.8
2017-Jan-17 13:27N 18°24' W 064°37'13 6.9
2017-Jan-17 11:33N 18°19' W 064°50'14 1.0
2017-Jan-16 21:17N 18°25' W 064°37'1723.2
2017-Jan-16 20:33N 18°18' W 064°53'0 0.2
2017-Jan-16 19:16N 18°18' W 064°53'6 2.2
2017-Jan-16 16:34N 18°21' W 064°48'2 1.2
2017-Jan-16 14:34N 18°19' W 064°50'1211.0
2017-Jan-16 13:26N 18°24' W 064°37'10 5.1
2017-Jan-16 11:34N 18°21' W 064°47'11 0.7
2017-Jan-15 21:28N 18°25' W 064°37'17 8.8
2017-Jan-15 19:33N 18°18' W 064°53'5 1.7
2017-Jan-15 16:33N 18°21' W 064°48'11 9.4
2017-Jan-15 15:25N 18°24' W 064°37'11 6.0
2017-Jan-15 13:33N 18°20' W 064°48'12 0.7
2017-Jan-14 21:14N 18°25' W 064°37'1522.8
2017-Jan-14 20:33N 18°18' W 064°51'1 1.1
2017-Jan-14 19:12N 18°18' W 064°53'1624.6
2017-Jan-14 18:33N 18°24' W 064°38'11 5.4
2017-Jan-14 16:33N 18°20' W 064°48'1 0.6
2017-Jan-14 14:34N 18°21' W 064°47'1110.0
2017-Jan-14 13:29N 18°25' W 064°37'12 6.1
2017-Jan-14 11:33N 18°21' W 064°48'12 0.8
2017-Jan-13 21:12N 18°25' W 064°37'1522.9
2017-Jan-13 20:33N 18°19' W 064°51'3 2.3
2017-Jan-13 19:20N 18°18' W 064°54'8 3.0
2017-Jan-13 16:33N 18°22' W 064°46'0 0.1
2017-Jan-13 14:33N 18°22' W 064°46'8 8.3
2017-Jan-13 13:33N 18°24' W 064°38'15 7.5
2017-Jan-13 11:33N 18°18' W 064°52'16 1.1
2017-Jan-12 21:28N 18°25' W 064°37'17 7.5
2017-Jan-12 19:12N 18°18' W 064°53'1624.7
2017-Jan-12 18:33N 18°24' W 064°37'8 4.0
2017-Jan-12 16:33N 18°22' W 064°45'7 3.3
2017-Jan-12 14:33N 18°18' W 064°51'1513.1
2017-Jan-12 13:25N 18°25' W 064°37'14 7.6
2017-Jan-12 11:33N 18°19' W 064°50'13 0.9
2017-Jan-11 21:09N 18°24' W 064°37'1423.5
2017-Jan-11 20:34N 18°19' W 064°51'2 1.4
2017-Jan-11 19:10N 18°18' W 064°53'1525.4
2017-Jan-11 18:34N 18°24' W 064°38'8 4.1
2017-Jan-11 16:34N 18°22' W 064°46'4 2.2
2017-Jan-11 14:34N 18°19' W 064°50'12 9.8
2017-Jan-11 13:20N 18°24' W 064°38'12 7.0
2017-Jan-11 11:34N 18°19' W 064°50'13 0.9
2017-Jan-10 21:07N 18°24' W 064°37'1423.9
2017-Jan-10 20:32N 18°19' W 064°51'  
Track history (hours):
 
Tides and Currents Weather Stations Pressure Air Temp Water Temp Dewpoint Dewpoint Depression Visibility Wind Speed Wind Dir Waves Ship Positions

Provincetown III

Owner: MYSTIC FERRY LEASING LLC, BOSTON, MA. More information available from US FCC via Universal Licensing System and Coast Guard Vessel Documentation Center.

Last reported at 2017-Jan-20 19:30 UTC. Time now 2017-Jan-20 20:15 UTC.
Position N 18°25' W 064°37'.

Length 30 m; draft 2 m.

Type: Passenger vessel. MMSI: 366954420.

Date/timePositionNaut miles runAvg speedWind from/ knotsBaromVisibWave heightAir tempDewpointWater temp
2017-Jan-20 19:30N 18°25' W 064°37'1010.5
2017-Jan-20 18:33N 18°22' W 064°47'9 7.9
2017-Jan-20 17:24N 18°20' W 064°56'0 0.1
2017-Jan-20 16:33N 18°20' W 064°56'0 0.2
2017-Jan-20 15:33N 18°20' W 064°56'1010.1
2017-Jan-20 14:33N 18°22' W 064°46'6 5.7
2017-Jan-20 13:34N 18°23' W 064°40'9 4.6
2017-Jan-20 11:33N 18°20' W 064°49'12 0.8
2017-Jan-19 21:11N 18°24' W 064°37'1524.1
2017-Jan-19 20:33N 18°18' W 064°52'0 0.2
2017-Jan-19 19:11N 18°18' W 064°52'1524.1
2017-Jan-19 18:33N 18°24' W 064°38'8 3.9
2017-Jan-19 16:33N 18°22' W 064°46'1 0.6
2017-Jan-19 14:34N 18°22' W 064°47'9 7.8
2017-Jan-19 13:24N 18°24' W 064°37'10 5.5
2017-Jan-19 11:33N 18°21' W 064°48'11 0.8
2017-Jan-18 21:14N 18°25' W 064°37'1623.4
2017-Jan-18 20:33N 18°18' W 064°52'7 1.8
2017-Jan-18 16:34N 18°22' W 064°46'5 2.5
2017-Jan-18 14:32N 18°19' W 064°50'1211.2
2017-Jan-18 13:25N 18°24' W 064°38'12 6.3
2017-Jan-18 11:33N 18°20' W 064°49'13 0.9
2017-Jan-17 21:15N 18°24' W 064°37'1623.1
2017-Jan-17 20:34N 18°18' W 064°52'1 0.5
2017-Jan-17 19:13N 18°18' W 064°53'1624.4
2017-Jan-17 18:33N 18°24' W 064°37'9 4.5
2017-Jan-17 16:34N 18°22' W 064°46'1 0.6
2017-Jan-17 14:34N 18°21' W 064°47'10 8.8
2017-Jan-17 13:27N 18°24' W 064°37'13 6.9
2017-Jan-17 11:33N 18°19' W 064°50'14 1.0
2017-Jan-16 21:17N 18°25' W 064°37'1723.2
2017-Jan-16 20:33N 18°18' W 064°53'0 0.2
2017-Jan-16 19:16N 18°18' W 064°53'6 2.2
2017-Jan-16 16:34N 18°21' W 064°48'2 1.2
2017-Jan-16 14:34N 18°19' W 064°50'1211.0
2017-Jan-16 13:26N 18°24' W 064°37'10 5.1
2017-Jan-16 11:34N 18°21' W 064°47'11 0.7
2017-Jan-15 21:28N 18°25' W 064°37'17 8.8
2017-Jan-15 19:33N 18°18' W 064°53'5 1.7
2017-Jan-15 16:33N 18°21' W 064°48'11 9.4
2017-Jan-15 15:25N 18°24' W 064°37'11 6.0
2017-Jan-15 13:33N 18°20' W 064°48'12 0.7
2017-Jan-14 21:14N 18°25' W 064°37'1522.8
2017-Jan-14 20:33N 18°18' W 064°51'1 1.1
2017-Jan-14 19:12N 18°18' W 064°53'1624.6
2017-Jan-14 18:33N 18°24' W 064°38'11 5.4
2017-Jan-14 16:33N 18°20' W 064°48'1 0.6
2017-Jan-14 14:34N 18°21' W 064°47'1110.0
2017-Jan-14 13:29N 18°25' W 064°37'12 6.1
2017-Jan-14 11:33N 18°21' W 064°48'12 0.8
2017-Jan-13 21:12N 18°25' W 064°37'1522.9
2017-Jan-13 20:33N 18°19' W 064°51'3 2.3
2017-Jan-13 19:20N 18°18' W 064°54'8 3.0
2017-Jan-13 16:33N 18°22' W 064°46'0 0.1
2017-Jan-13 14:33N 18°22' W 064°46'8 8.3
2017-Jan-13 13:33N 18°24' W 064°38'15 7.5
2017-Jan-13 11:33N 18°18' W 064°52'16 1.1
2017-Jan-12 21:28N 18°25' W 064°37'17 7.5
2017-Jan-12 19:12N 18°18' W 064°53'1624.7
2017-Jan-12 18:33N 18°24' W 064°37'8 4.0
2017-Jan-12 16:33N 18°22' W 064°45'7 3.3
2017-Jan-12 14:33N 18°18' W 064°51'1513.1
2017-Jan-12 13:25N 18°25' W 064°37'14 7.6
2017-Jan-12 11:33N 18°19' W 064°50'13 0.9
2017-Jan-11 21:09N 18°24' W 064°37'1423.5
2017-Jan-11 20:34N 18°19' W 064°51'2 1.4
2017-Jan-11 19:10N 18°18' W 064°53'1525.4
2017-Jan-11 18:34N 18°24' W 064°38'8 4.1
2017-Jan-11 16:34N 18°22' W 064°46'4 2.2
2017-Jan-11 14:34N 18°19' W 064°50'12 9.8
2017-Jan-11 13:20N 18°24' W 064°38'12 7.0
2017-Jan-11 11:34N 18°19' W 064°50'13 0.9
2017-Jan-10 21:07N 18°24' W 064°37'1423.9
2017-Jan-10 20:32N 18°19' W 064°51'  

Dump ship's entire track history